Time;durP1;ratioP1;P1;durP2;ratioP2;P2;SDS_P1;SDS_P2;PMS_P1;PMS_P2;Temp;Humidity;BMP_temperature;BMP_pressure;BME280_temperature;BME280_humidity;BME280_pressure;Samples;Min_cycle;Max_cycle;Signal;HPM_P1;HPM_P2
2020/12/02 00:01:13;;;;;;;23.80;11.00;;;2.90;99.90;;;;;;5005645;28;20070;-79
2020/12/02 00:03:41;;;;;;;26.50;12.35;;;2.90;99.90;;;;;;5007604;28;20041;-79
2020/12/02 00:06:08;;;;;;;24.13;11.98;;;2.90;99.90;;;;;;5020381;28;20049;-79
2020/12/02 00:08:37;;;;;;;25.67;11.60;;;2.90;99.90;;;;;;5007703;28;20647;-79
2020/12/02 00:11:06;;;;;;;21.42;11.07;;;2.90;99.90;;;;;;5005533;28;20041;-79
2020/12/02 00:13:35;;;;;;;27.42;12.00;;;2.90;99.90;;;;;;5003528;28;20086;-79
2020/12/02 00:16:02;;;;;;;23.80;11.00;;;2.90;99.90;;;;;;5003304;28;20044;-79
2020/12/02 00:18:28;;;;;;;25.20;11.57;;;2.90;99.90;;;;;;5004262;28;20038;-79
2020/12/02 00:20:54;;;;;;;29.45;12.57;;;2.90;99.90;;;;;;5005118;28;20125;-80
2020/12/02 00:23:20;;;;;;;24.23;11.73;;;2.80;99.90;;;;;;5005702;28;20161;-78
2020/12/02 00:25:46;;;;;;;27.55;12.75;;;2.80;99.90;;;;;;5020676;28;20034;-79
2020/12/02 00:28:12;;;;;;;36.45;13.77;;;2.80;99.90;;;;;;5003627;28;20045;-79
2020/12/02 00:30:39;;;;;;;31.60;13.93;;;2.80;99.90;;;;;;5016374;28;20072;-79
2020/12/02 00:33:11;;;;;;;31.88;13.65;;;2.80;99.90;;;;;;5006145;28;20038;-80
2020/12/02 00:35:36;;;;;;;32.33;14.35;;;2.70;99.90;;;;;;5021387;28;20193;-80
2020/12/02 00:38:04;;;;;;;34.28;13.63;;;2.70;99.90;;;;;;5009707;28;20092;-79
2020/12/02 00:40:29;;;;;;;40.88;15.23;;;2.80;99.90;;;;;;5006037;28;20042;-79
2020/12/02 00:42:55;;;;;;;44.25;14.05;;;2.80;99.90;;;;;;5003409;28;20030;-79
2020/12/02 00:45:20;;;;;;;40.38;15.02;;;2.70;99.90;;;;;;5001023;28;20030;-79
2020/12/02 00:47:49;;;;;;;41.42;15.57;;;2.70;99.90;;;;;;5015628;28;20093;-78
2020/12/02 00:50:15;;;;;;;40.80;14.82;;;2.70;99.90;;;;;;5003399;28;20053;-79
2020/12/02 00:52:41;;;;;;;39.38;15.27;;;2.70;99.90;;;;;;5001238;28;20503;-79
2020/12/02 00:55:06;;;;;;;38.28;15.70;;;2.70;99.90;;;;;;5001562;28;20045;-79
2020/12/02 00:57:35;;;;;;;36.88;14.88;;;2.70;99.90;;;;;;5003179;28;20037;-78
2020/12/02 01:00:05;;;;;;;34.95;14.10;;;2.70;99.90;;;;;;5027617;28;20029;-78
2020/12/02 01:03:13;;;;;;;34.38;13.52;;;2.70;99.90;;;;;;5032685;28;20048;-80
2020/12/02 01:05:39;;;;;;;41.65;16.20;;;3.20;99.90;;;;;;5007640;28;20029;-79
2020/12/02 01:08:20;;;;;;;35.10;14.27;;;2.60;99.90;;;;;;5008623;28;20049;-79
2020/12/02 01:10:51;;;;;;;32.92;15.07;;;2.60;99.90;;;;;;5004182;28;20414;-78
2020/12/02 01:13:16;;;;;;;38.60;13.95;;;2.60;99.90;;;;;;5000858;28;20067;-78
2020/12/02 01:15:43;;;;;;;36.30;15.05;;;2.70;99.90;;;;;;5018444;28;20037;-79
2020/12/02 01:18:19;;;;;;;36.03;14.68;;;2.60;99.90;;;;;;5001595;28;20080;-79
2020/12/02 01:20:46;;;;;;;35.50;15.20;;;2.70;99.90;;;;;;5004849;28;20041;-80
2020/12/02 01:23:15;;;;;;;33.15;14.88;;;2.70;99.90;;;;;;5005140;28;20112;-79
2020/12/02 01:25:43;;;;;;;29.55;13.07;;;2.70;99.90;;;;;;5002710;28;20184;-79
2020/12/02 01:28:14;;;;;;;31.73;14.02;;;2.70;99.90;;;;;;5005178;28;20042;-79
2020/12/02 01:30:41;;;;;;;33.85;13.98;;;2.60;99.90;;;;;;5003585;28;20111;-79
2020/12/02 01:33:11;;;;;;;31.58;13.35;;;2.30;99.90;;;;;;5002016;28;20053;-79
2020/12/02 01:35:37;;;;;;;32.53;12.90;;;2.60;99.90;;;;;;5002268;28;20044;-79
2020/12/02 01:38:05;;;;;;;30.38;13.18;;;2.60;99.90;;;;;;5004134;28;20038;-79
2020/12/02 01:40:35;;;;;;;29.02;13.15;;;2.60;99.90;;;;;;5017103;28;20046;-79
2020/12/02 01:43:04;;;;;;;30.15;13.18;;;2.60;99.90;;;;;;5004967;28;20065;-79
2020/12/02 01:45:36;;;;;;;29.58;12.32;;;2.60;99.90;;;;;;5004795;28;20042;-79
2020/12/02 01:48:35;;;;;;;28.48;12.48;;;2.50;99.90;;;;;;5005356;28;20038;-80
2020/12/02 01:51:19;;;;;;;32.30;14.07;;;2.50;99.90;;;;;;5003637;28;20038;-80
2020/12/02 01:53:49;;;;;;;32.13;13.35;;;2.60;99.90;;;;;;5016799;28;20049;-79
2020/12/02 01:56:27;;;;;;;34.35;14.25;;;2.60;99.90;;;;;;5017055;28;20079;-79
2020/12/02 01:59:23;;;;;;;33.33;13.40;;;2.60;99.90;;;;;;5001533;28;20492;-79
2020/12/02 02:02:04;;;;;;;24.73;11.80;;;2.60;99.90;;;;;;5001468;28;20945;-80
2020/12/02 02:04:50;;;;;;;29.15;12.32;;;2.60;99.90;;;;;;5000895;28;20044;-79
2020/12/02 02:07:23;;;;;;;29.40;13.98;;;2.60;99.90;;;;;;4999896;28;20053;-79
2020/12/02 02:09:52;;;;;;;27.80;12.32;;;2.60;99.90;;;;;;5002503;28;20117;-78
2020/12/02 02:12:36;;;;;;;25.50;11.43;;;2.60;99.90;;;;;;5003590;28;20042;-79
2020/12/02 02:15:07;;;;;;;33.67;13.50;;;2.60;99.90;;;;;;5026880;28;20046;-78
2020/12/02 02:17:33;;;;;;;25.17;13.15;;;2.60;99.90;;;;;;5025163;28;20044;-78
2020/12/02 02:19:59;;;;;;;32.30;13.93;;;2.60;99.90;;;;;;5013217;28;20038;-79
2020/12/02 02:22:25;;;;;;;31.08;13.45;;;2.50;99.90;;;;;;5000017;28;20132;-79
2020/12/02 02:24:52;;;;;;;33.20;13.07;;;2.50;99.90;;;;;;5005839;28;20229;-79
2020/12/02 02:27:22;;;;;;;30.63;13.80;;;2.60;99.90;;;;;;5005432;28;20046;-79
2020/12/02 02:29:48;;;;;;;36.13;13.98;;;2.60;99.90;;;;;;5004299;28;20038;-78
2020/12/02 02:32:23;;;;;;;31.98;14.10;;;2.60;99.90;;;;;;5007982;28;20041;-79
2020/12/02 02:34:52;;;;;;;28.58;13.50;;;2.50;99.90;;;;;;5010770;28;20091;-79
2020/12/02 02:37:21;;;;;;;31.00;13.35;;;2.50;99.90;;;;;;5035584;28;20267;-79
2020/12/02 02:39:47;;;;;;;31.33;13.90;;;2.50;99.90;;;;;;5024887;28;20034;-80
2020/12/02 02:42:35;;;;;;;34.00;13.98;;;2.60;99.90;;;;;;5018573;28;20038;-80
2020/12/02 02:45:05;;;;;;;28.70;13.63;;;2.50;99.90;;;;;;5010696;28;20120;-79
2020/12/02 02:47:32;;;;;;;33.22;14.50;;;2.50;99.90;;;;;;5006887;28;20045;-79
2020/12/02 02:49:57;;;;;;;33.20;13.73;;;2.50;99.90;;;;;;5008977;28;20438;-79
2020/12/02 02:52:23;;;;;;;33.85;15.23;;;2.50;99.90;;;;;;5006105;28;20049;-79
2020/12/02 02:54:49;;;;;;;39.47;15.65;;;2.50;99.90;;;;;;5010625;28;20479;-80
2020/12/02 02:57:14;;;;;;;32.58;14.73;;;2.60;99.90;;;;;;5008616;28;20566;-80
2020/12/02 02:59:40;;;;;;;38.10;14.82;;;2.60;99.90;;;;;;5004625;28;20034;-79
2020/12/02 03:02:09;;;;;;;31.23;12.35;;;2.60;99.90;;;;;;5004684;28;20092;-80
2020/12/02 03:04:35;;;;;;;32.53;14.30;;;2.60;99.90;;;;;;5005847;28;20042;-79
2020/12/02 03:07:00;;;;;;;34.65;15.10;;;2.50;99.90;;;;;;5005483;28;20114;-80
2020/12/02 03:09:26;;;;;;;33.53;14.13;;;2.60;99.90;;;;;;5009532;28;20046;-80
2020/12/02 03:11:54;;;;;;;34.13;14.68;;;2.60;99.90;;;;;;5012406;28;20030;-79
2020/12/02 03:14:20;;;;;;;29.90;13.95;;;2.60;99.90;;;;;;5006768;28;20037;-80
2020/12/02 03:16:52;;;;;;;34.63;13.90;;;2.60;99.90;;;;;;5006247;28;20050;-81
2020/12/02 03:19:24;;;;;;;34.15;14.20;;;2.70;99.90;;;;;;5006705;28;20042;-80
2020/12/02 03:21:52;;;;;;;32.00;13.88;;;2.60;99.90;;;;;;5007452;28;20570;-80
2020/12/02 03:24:18;;;;;;;40.08;15.02;;;2.50;99.90;;;;;;5004914;28;20034;-80
2020/12/02 03:26:46;;;;;;;31.23;14.07;;;2.60;99.90;;;;;;5005598;28;20036;-80
2020/12/02 03:29:12;;;;;;;38.50;15.18;;;2.50;99.90;;;;;;5016695;28;20049;-80
2020/12/02 03:31:38;;;;;;;37.20;15.73;;;2.50;99.90;;;;;;5003489;28;20046;-80
2020/12/02 03:34:08;;;;;;;38.92;13.50;;;2.50;99.90;;;;;;5008619;28;20117;-80
2020/12/02 03:36:33;;;;;;;35.72;14.48;;;2.50;99.90;;;;;;5007093;28;21371;-78
2020/12/02 03:38:59;;;;;;;38.97;15.77;;;2.50;99.90;;;;;;5004242;28;20030;-79
2020/12/02 03:41:24;;;;;;;35.60;15.38;;;2.50;99.90;;;;;;5017358;28;20030;-78
2020/12/02 03:43:50;;;;;;;35.78;15.52;;;2.50;99.90;;;;;;5001273;28;20034;-79
2020/12/02 03:46:16;;;;;;;35.45;14.55;;;2.60;99.90;;;;;;4996520;28;20132;-79
2020/12/02 03:48:41;;;;;;;35.65;15.20;;;2.60;99.90;;;;;;4998387;28;20148;-78
2020/12/02 03:51:07;;;;;;;30.95;13.55;;;2.60;99.90;;;;;;4996303;28;20485;-79
2020/12/02 03:53:33;;;;;;;34.88;14.82;;;2.60;99.90;;;;;;4996245;28;20067;-79
2020/12/02 03:55:59;;;;;;;36.15;13.68;;;2.60;99.90;;;;;;4997223;28;20045;-79
2020/12/02 03:58:24;;;;;;;36.33;14.38;;;2.60;99.90;;;;;;4996871;28;20049;-79
2020/12/02 04:00:50;;;;;;;33.45;15.48;;;2.60;99.90;;;;;;4997021;28;20042;-79
2020/12/02 04:03:16;;;;;;;37.47;14.45;;;2.60;99.90;;;;;;5013532;28;20065;-79
2020/12/02 04:05:41;;;;;;;37.08;14.82;;;2.60;99.90;;;;;;4999815;28;20034;-79
2020/12/02 04:08:08;;;;;;;30.30;14.18;;;2.60;99.90;;;;;;5005631;28;20511;-78
2020/12/02 04:10:34;;;;;;;36.33;15.18;;;2.60;99.90;;;;;;5019794;28;20056;-79
2020/12/02 04:13:00;;;;;;;41.22;17.48;;;2.60;99.90;;;;;;5016612;28;20042;-78
2020/12/02 04:15:26;;;;;;;34.55;14.98;;;2.60;99.90;;;;;;5010291;28;20052;-79
2020/12/02 04:17:51;;;;;;;32.90;14.27;;;2.60;99.90;;;;;;5031941;28;20030;-79
2020/12/02 04:20:20;;;;;;;34.67;14.88;;;2.60;99.90;;;;;;5015295;28;20137;-78
2020/12/02 04:22:46;;;;;;;31.60;13.77;;;2.60;99.90;;;;;;4999310;28;20046;-78
2020/12/02 04:25:12;;;;;;;29.30;14.40;;;2.60;99.90;;;;;;4999069;28;20046;-78
2020/12/02 04:27:38;;;;;;;31.80;14.90;;;2.60;99.90;;;;;;4995913;28;20077;-78
2020/12/02 04:30:06;;;;;;;29.10;13.48;;;2.60;99.90;;;;;;4999101;28;20161;-78
2020/12/02 04:32:31;;;;;;;35.85;15.35;;;2.60;99.90;;;;;;4996885;28;20048;-79
2020/12/02 04:35:01;;;;;;;31.92;13.57;;;2.60;99.90;;;;;;4999108;28;20046;-78
2020/12/02 04:37:32;;;;;;;31.92;14.15;;;2.60;99.90;;;;;;5000443;28;20022;-79
2020/12/02 04:39:59;;;;;;;32.42;14.45;;;2.70;99.90;;;;;;4990552;28;20045;-78
2020/12/02 04:42:31;;;;;;;35.85;15.40;;;2.60;99.90;;;;;;4997522;28;20052;-79
2020/12/02 04:44:58;;;;;;;38.72;15.30;;;2.60;99.90;;;;;;5000571;28;20612;-79
2020/12/02 04:47:39;;;;;;;36.03;14.55;;;2.60;99.90;;;;;;4999016;28;20338;-79
2020/12/02 04:50:25;;;;;;;30.10;14.20;;;2.60;99.90;;;;;;5021730;28;20034;-79
2020/12/02 04:53:14;;;;;;;36.92;14.30;;;2.60;99.90;;;;;;5022516;28;20038;-79
2020/12/02 04:55:43;;;;;;;37.50;16.10;;;2.60;99.90;;;;;;4997186;28;20044;-79
2020/12/02 04:58:31;;;;;;;29.55;13.60;;;2.60;99.90;;;;;;5015612;28;20508;-79
2020/12/02 05:01:28;;;;;;;32.20;13.82;;;2.60;99.90;;;;;;4986764;28;20035;-79
2020/12/02 05:03:58;;;;;;;30.30;13.95;;;2.60;99.90;;;;;;4988671;28;20030;-79
2020/12/02 05:06:32;;;;;;;29.83;14.18;;;2.60;99.90;;;;;;4995607;28;20469;-78
2020/12/02 05:09:11;;;;;;;38.70;15.02;;;2.60;99.90;;;;;;4994925;28;20047;-79
2020/12/02 05:11:41;;;;;;;31.65;14.23;;;2.60;99.90;;;;;;5010917;28;20072;-79
2020/12/02 05:14:13;;;;;;;30.20;13.68;;;2.60;99.90;;;;;;5009664;28;20034;-79
2020/12/02 05:16:39;;;;;;;32.50;14.13;;;2.60;99.90;;;;;;4999549;28;20495;-79
2020/12/02 05:19:20;;;;;;;32.40;14.48;;;2.50;99.90;;;;;;5001377;28;20068;-78
2020/12/02 05:21:46;;;;;;;26.17;11.82;;;2.60;99.90;;;;;;5001974;28;20033;-79
2020/12/02 05:24:16;;;;;;;26.15;13.00;;;2.60;99.90;;;;;;5014573;28;20367;-79
2020/12/02 05:26:49;;;;;;;31.77;14.75;;;2.60;99.90;;;;;;4995530;28;20470;-79
2020/12/02 05:29:37;;;;;;;30.33;13.23;;;2.60;99.90;;;;;;4997336;28;20037;-79
2020/12/02 05:32:27;;;;;;;30.95;12.98;;;2.60;99.90;;;;;;5000751;28;20133;-80
2020/12/02 05:34:54;;;;;;;34.65;14.68;;;2.60;99.90;;;;;;5012628;28;20041;-80
2020/12/02 05:37:30;;;;;;;32.70;14.20;;;2.60;99.90;;;;;;5011458;28;20530;-80
2020/12/02 05:40:02;;;;;;;29.52;13.40;;;2.60;99.90;;;;;;5012264;28;20034;-79
2020/12/02 05:42:33;;;;;;;32.88;14.18;;;2.60;99.90;;;;;;5017586;28;20249;-80
2020/12/02 05:45:11;;;;;;;24.77;12.40;;;2.60;99.90;;;;;;5026066;28;20065;-80
2020/12/02 05:47:37;;;;;;;28.73;13.15;;;2.60;99.90;;;;;;5019445;28;20102;-79
2020/12/02 05:50:09;;;;;;;30.40;14.15;;;2.60;99.90;;;;;;5012283;28;20057;-79
2020/12/02 05:52:38;;;;;;;30.95;13.50;;;2.60;99.90;;;;;;5008374;28;20089;-79
2020/12/02 05:55:04;;;;;;;30.45;13.45;;;2.60;99.90;;;;;;5010973;28;20555;-80
2020/12/02 05:57:30;;;;;;;28.88;14.35;;;2.60;99.90;;;;;;5008824;28;20034;-79
2020/12/02 05:59:57;;;;;;;31.15;14.23;;;2.60;99.90;;;;;;5008651;28;20042;-80
2020/12/02 06:02:24;;;;;;;29.02;13.98;;;2.60;99.90;;;;;;5005670;28;22562;-79
2020/12/02 06:04:53;;;;;;;27.77;13.32;;;2.60;99.90;;;;;;5002226;28;20057;-79
2020/12/02 06:07:20;;;;;;;33.20;14.27;;;2.60;99.90;;;;;;5004468;28;20410;-80
2020/12/02 06:09:49;;;;;;;29.08;14.43;;;2.60;99.90;;;;;;5003125;28;20087;-79
2020/12/02 06:12:22;;;;;;;30.88;15.05;;;2.60;99.90;;;;;;5002422;28;20041;-78
2020/12/02 06:14:48;;;;;;;29.42;13.05;;;2.60;99.90;;;;;;4997570;28;20038;-79
2020/12/02 06:17:31;;;;;;;28.63;13.23;;;2.60;99.90;;;;;;4998907;28;20119;-79
2020/12/02 06:19:57;;;;;;;31.55;13.43;;;2.60;99.90;;;;;;4999744;28;20042;-79
2020/12/02 06:22:33;;;;;;;28.73;12.77;;;2.60;99.90;;;;;;4996788;28;20798;-79
2020/12/02 06:24:58;;;;;;;29.02;13.73;;;2.60;99.90;;;;;;4990925;28;20099;-78
2020/12/02 06:27:30;;;;;;;29.40;13.40;;;2.60;99.90;;;;;;4987214;28;20041;-79
2020/12/02 06:30:04;;;;;;;32.40;13.85;;;2.60;99.90;;;;;;5003502;28;20546;-79
2020/12/02 06:32:30;;;;;;;31.30;14.07;;;2.50;99.90;;;;;;5002903;28;20133;-80
2020/12/02 06:35:29;;;;;;;28.92;12.73;;;2.50;99.90;;;;;;5007040;28;20130;-79
2020/12/02 06:38:15;;;;;;;29.40;13.43;;;2.50;99.90;;;;;;4960740;28;20057;-80
2020/12/02 06:40:57;;;;;;;39.25;15.40;;;2.50;99.90;;;;;;5002464;28;20489;-79
2020/12/02 06:43:24;;;;;;;31.38;13.15;;;2.60;99.90;;;;;;5002312;28;20046;-79
2020/12/02 06:45:51;;;;;;;31.20;14.30;;;2.60;99.90;;;;;;5002785;28;20073;-78
2020/12/02 06:48:35;;;;;;;38.20;15.30;;;2.60;99.90;;;;;;5004751;28;20038;-79
2020/12/02 06:51:06;;;;;;;30.30;14.02;;;3.20;99.90;;;;;;5005942;28;20044;-80
2020/12/02 06:53:32;;;;;;;31.60;14.38;;;2.60;99.90;;;;;;5002984;28;20927;-79
2020/12/02 06:56:00;;;;;;;36.10;14.20;;;2.60;99.90;;;;;;5004232;28;20056;-78
2020/12/02 06:58:26;;;;;;;32.03;15.15;;;2.70;99.90;;;;;;5004211;28;20064;-80
2020/12/02 07:00:59;;;;;;;33.50;14.05;;;2.70;99.90;;;;;;5008584;28;20033;-79
2020/12/02 07:03:40;;;;;;;40.53;13.73;;;2.70;99.90;;;;;;5006004;28;20034;-80
2020/12/02 07:06:20;;;;;;;30.88;13.45;;;2.70;99.90;;;;;;5007024;28;20042;-79
2020/12/02 07:08:57;;;;;;;32.10;13.98;;;2.70;99.90;;;;;;5011018;28;20034;-82
2020/12/02 07:11:24;;;;;;;29.05;13.38;;;2.70;99.90;;;;;;5010752;28;20026;-80
2020/12/02 07:13:53;;;;;;;34.65;12.88;;;2.80;99.90;;;;;;5036199;28;20014;-80
2020/12/02 07:16:30;;;;;;;28.98;13.85;;;2.80;99.90;;;;;;5035587;28;20145;-80
2020/12/02 07:19:02;;;;;;;31.27;13.85;;;2.80;99.90;;;;;;5032013;28;20026;-79
2020/12/02 07:21:42;;;;;;;35.55;14.50;;;2.80;99.90;;;;;;5025814;28;20037;-80
2020/12/02 07:24:22;;;;;;;32.22;13.15;;;2.80;99.90;;;;;;5015953;28;20153;-80
2020/12/02 07:26:49;;;;;;;35.67;14.88;;;2.80;99.90;;;;;;5012654;28;20044;-80
2020/12/02 07:29:19;;;;;;;28.63;13.40;;;2.80;99.90;;;;;;5013856;28;20063;-80
2020/12/02 07:31:44;;;;;;;31.15;13.93;;;2.90;99.90;;;;;;5023473;28;20017;-82
2020/12/02 07:34:21;;;;;;;32.33;12.77;;;2.90;99.90;;;;;;5033401;28;20026;-80
2020/12/02 07:36:47;;;;;;;33.42;14.15;;;2.90;99.90;;;;;;5020451;28;20037;-79
2020/12/02 07:39:19;;;;;;;36.40;15.02;;;2.90;99.90;;;;;;5016684;28;20053;-80
2020/12/02 07:42:03;;;;;;;27.90;13.23;;;2.90;99.90;;;;;;4999631;28;20227;-80
2020/12/02 07:44:33;;;;;;;38.85;14.15;;;2.90;99.90;;;;;;4999475;28;20370;-80
2020/12/02 07:47:06;;;;;;;37.35;15.35;;;2.90;99.90;;;;;;4997494;28;20160;-80
2020/12/02 07:49:31;;;;;;;34.15;14.25;;;2.90;99.90;;;;;;4994308;28;20042;-81
2020/12/02 07:52:12;;;;;;;35.35;14.55;;;2.90;99.90;;;;;;4993102;28;20034;-81
2020/12/02 07:54:37;;;;;;;39.05;14.65;;;2.90;99.90;;;;;;4992931;28;20518;-81
2020/12/02 07:57:03;;;;;;;37.78;14.63;;;2.90;99.90;;;;;;4991775;28;20064;-80
2020/12/02 07:59:31;;;;;;;45.63;15.50;;;2.90;99.90;;;;;;5008494;28;20423;-81
2020/12/02 08:01:57;;;;;;;35.00;14.93;;;2.90;99.90;;;;;;4994914;28;20034;-81
2020/12/02 08:04:23;;;;;;;31.98;13.98;;;2.90;99.90;;;;;;4990790;28;20046;-79
2020/12/02 08:07:00;;;;;;;35.13;14.15;;;2.90;99.90;;;;;;4990046;28;20042;-82
2020/12/02 08:09:26;;;;;;;35.70;14.82;;;3.00;99.90;;;;;;4997528;28;20863;-81
2020/12/02 08:11:59;;;;;;;38.28;15.02;;;3.00;99.90;;;;;;4993870;28;20078;-81
2020/12/02 08:14:30;;;;;;;34.13;14.00;;;3.00;99.90;;;;;;4994685;28;20042;-81
2020/12/02 08:17:23;;;;;;;32.50;13.23;;;3.10;99.90;;;;;;5012046;28;20057;-80
2020/12/02 08:19:53;;;;;;;30.77;13.20;;;3.10;99.90;;;;;;5005705;28;20570;-81
2020/12/02 08:22:30;;;;;;;37.33;14.30;;;3.10;99.90;;;;;;5009085;28;20136;-81
2020/12/02 08:25:30;;;;;;;33.50;14.68;;;3.10;99.90;;;;;;5016057;28;20046;-80
2020/12/02 08:28:01;;;;;;;35.63;14.48;;;3.10;99.90;;;;;;5016916;28;20038;-81
2020/12/02 08:30:29;;;;;;;36.45;14.85;;;3.10;99.90;;;;;;5018527;28;20119;-80
2020/12/02 08:33:01;;;;;;;37.97;15.05;;;3.00;99.90;;;;;;5017437;28;20588;-80
2020/12/02 08:35:38;;;;;;;27.63;13.02;;;3.00;99.90;;;;;;5015081;28;20057;-81
2020/12/02 08:38:05;;;;;;;37.00;14.52;;;3.10;99.90;;;;;;5017418;28;20098;-81
2020/12/02 08:41:00;;;;;;;32.92;14.43;;;3.10;99.90;;;;;;5032257;28;20045;-80
2020/12/02 08:43:34;;;;;;;39.83;15.10;;;3.10;99.90;;;;;;5016929;28;20064;-80
2020/12/02 08:46:16;;;;;;;46.33;13.67;;;3.00;99.90;;;;;;5022375;28;20038;-82
2020/12/02 08:48:43;;;;;;;36.90;14.82;;;3.00;99.90;;;;;;5025011;28;20045;-80
2020/12/02 08:51:18;;;;;;;39.30;13.93;;;3.10;99.90;;;;;;5020237;28;20045;-79
2020/12/02 08:53:44;;;;;;;36.50;15.43;;;3.00;99.90;;;;;;5006691;28;20038;-79
2020/12/02 08:56:34;;;;;;;41.90;14.32;;;3.00;99.90;;;;;;5022491;28;20093;-81
2020/12/02 08:59:02;;;;;;;36.70;14.55;;;3.00;99.90;;;;;;5002310;28;20026;-81
2020/12/02 09:01:27;;;;;;;29.45;13.98;;;2.90;99.90;;;;;;5005237;28;20094;-83
2020/12/02 09:03:53;;;;;;;28.55;12.88;;;3.00;99.90;;;;;;5017473;28;20080;-82
2020/12/02 09:06:20;;;;;;;31.45;13.73;;;3.00;99.90;;;;;;5023965;28;20069;-80
2020/12/02 09:08:47;;;;;;;33.58;14.05;;;3.00;99.90;;;;;;5017636;28;20033;-80
2020/12/02 09:11:30;;;;;;;40.60;15.00;;;3.00;99.90;;;;;;5030019;28;20049;-80
2020/12/02 09:13:56;;;;;;;29.63;12.70;;;3.00;99.90;;;;;;5018199;28;20121;-79
2020/12/02 09:16:30;;;;;;;34.50;13.60;;;3.00;99.90;;;;;;5021688;28;20120;-80
2020/12/02 09:18:56;;;;;;;32.97;13.50;;;3.00;99.90;;;;;;5013869;28;20029;-81
2020/12/02 09:21:24;;;;;;;33.25;13.63;;;2.90;99.90;;;;;;5004532;28;20033;-81
2020/12/02 09:23:50;;;;;;;30.42;12.68;;;3.00;99.90;;;;;;5008124;28;20037;-80
2020/12/02 09:26:18;;;;;;;32.95;13.57;;;2.90;99.90;;;;;;5008502;28;20034;-81
2020/12/02 09:28:44;;;;;;;35.03;13.25;;;2.90;99.90;;;;;;5005760;28;20030;-80
2020/12/02 09:31:09;;;;;;;35.22;13.00;;;2.90;99.90;;;;;;5014182;28;20049;-80
2020/12/02 09:33:35;;;;;;;48.95;14.73;;;2.80;99.90;;;;;;5012402;28;20042;-82
2020/12/02 09:36:00;;;;;;;42.67;13.80;;;2.90;99.90;;;;;;5009819;28;20068;-80
2020/12/02 09:38:26;;;;;;;35.10;13.55;;;2.80;99.90;;;;;;5012644;28;20033;-81
2020/12/02 09:40:51;;;;;;;39.60;15.35;;;2.80;99.90;;;;;;5011788;28;20394;-80
2020/12/02 09:43:45;;;;;;;36.70;13.60;;;2.90;99.90;;;;;;5011323;28;20137;-81
2020/12/02 09:46:19;;;;;;;34.55;13.18;;;2.90;99.90;;;;;;5006962;28;20061;-81
2020/12/02 09:48:46;;;;;;;35.35;13.18;;;2.90;99.90;;;;;;5016069;28;20045;-81
2020/12/02 09:51:24;;;;;;;28.50;11.23;;;2.90;99.90;;;;;;5017249;28;20188;-80
2020/12/02 09:53:53;;;;;;;29.80;11.75;;;2.90;99.90;;;;;;5009075;28;20038;-80
2020/12/02 09:56:19;;;;;;;32.50;12.80;;;2.90;99.90;;;;;;5001097;28;20041;-81
2020/12/02 09:58:48;;;;;;;32.10;12.02;;;2.90;99.90;;;;;;5011585;28;20045;-82
2020/12/02 10:01:31;;;;;;;29.70;12.38;;;2.90;99.90;;;;;;5007885;28;20042;-81
2020/12/02 10:04:21;;;;;;;26.00;10.43;;;2.90;99.90;;;;;;5008284;28;20053;-82
2020/12/02 10:07:05;;;;;;;26.85;11.32;;;3.00;99.90;;;;;;5003860;28;20046;-81
2020/12/02 10:09:45;;;;;;;29.48;12.18;;;2.90;99.90;;;;;;5011879;28;20564;-81
2020/12/02 10:12:17;;;;;;;38.47;13.93;;;2.90;99.90;;;;;;5009491;28;20034;-81
2020/12/02 10:14:52;;;;;;;36.58;13.68;;;3.00;99.90;;;;;;5012839;28;20050;-82
2020/12/02 10:17:30;;;;;;;35.53;15.13;;;3.00;99.90;;;;;;5010431;28;20049;-80
2020/12/02 10:20:20;;;;;;;43.50;15.75;;;2.90;99.90;;;;;;5024872;28;20041;-82
2020/12/02 10:23:18;;;;;;;37.78;15.70;;;2.90;99.90;;;;;;5019490;28;20041;-80
2020/12/02 10:26:01;;;;;;;42.03;15.43;;;3.00;99.90;;;;;;4982662;28;20052;-80
2020/12/02 10:28:49;;;;;;;48.13;18.00;;;3.00;99.90;;;;;;5009398;28;20049;-81
2020/12/02 10:31:33;;;;;;;45.78;16.80;;;3.00;99.90;;;;;;5012565;28;20034;-82
2020/12/02 10:34:10;;;;;;;46.60;16.15;;;3.40;99.90;;;;;;5009772;28;20038;-81
2020/12/02 10:36:44;;;;;;;48.58;16.52;;;3.00;99.90;;;;;;5004012;28;20045;-83
2020/12/02 10:39:16;;;;;;;39.35;15.55;;;3.10;99.90;;;;;;5015928;28;20491;-81
2020/12/02 10:42:19;;;;;;;42.95;17.25;;;3.10;99.90;;;;;;5015561;28;20042;-80
2020/12/02 10:44:55;;;;;;;41.13;15.60;;;3.10;99.90;;;;;;5022396;28;20073;-79
2020/12/02 10:48:02;;;;;;;38.25;16.15;;;3.00;99.90;;;;;;5033884;28;20125;-80
2020/12/02 10:50:31;;;;;;;40.70;15.73;;;3.00;99.90;;;;;;5026162;28;20233;-81
2020/12/02 10:53:00;;;;;;;44.35;16.02;;;3.10;99.90;;;;;;5016305;28;20060;-80
2020/12/02 10:55:34;;;;;;;40.28;16.38;;;3.10;99.90;;;;;;5017683;28;20054;-81
2020/12/02 10:58:13;;;;;;;43.25;15.18;;;3.10;99.90;;;;;;5014177;28;20038;-81
2020/12/02 11:00:39;;;;;;;39.10;16.02;;;3.10;99.90;;;;;;5032269;28;20030;-80
2020/12/02 11:03:18;;;;;;;47.78;15.60;;;3.10;99.90;;;;;;5010284;28;20049;-80
2020/12/02 11:06:17;;;;;;;40.22;15.48;;;3.20;99.90;;;;;;5006880;28;20042;-82
2020/12/02 11:09:07;;;;;;;43.05;15.27;;;3.10;99.90;;;;;;5010123;28;20101;-82
2020/12/02 11:11:49;;;;;;;40.50;16.17;;;3.20;99.90;;;;;;5010905;28;20073;-82
2020/12/02 11:14:34;;;;;;;37.05;15.32;;;3.20;99.90;;;;;;5016010;28;20105;-81
2020/12/02 11:17:24;;;;;;;41.08;14.52;;;3.20;99.90;;;;;;5027654;28;20509;-81
2020/12/02 11:20:02;;;;;;;43.67;16.25;;;3.20;99.90;;;;;;5031483;28;20049;-81
2020/12/02 11:22:56;;;;;;;45.08;15.07;;;3.40;99.90;;;;;;5017653;28;20042;-81
2020/12/02 11:25:30;;;;;;;39.08;15.23;;;3.50;99.90;;;;;;5018951;28;20053;-82
2020/12/02 11:27:55;;;;;;;42.17;15.00;;;3.50;99.90;;;;;;5030423;28;20046;-81
2020/12/02 11:30:31;;;;;;;37.92;14.38;;;3.50;99.90;;;;;;5009991;28;20050;-81
2020/12/02 11:33:28;;;;;;;40.53;14.82;;;3.60;99.30;;;;;;5031546;28;20068;-81
2020/12/02 11:36:17;;;;;;;38.28;15.82;;;3.60;99.00;;;;;;5013853;28;20045;-83
2020/12/02 11:39:04;;;;;;;46.22;15.10;;;3.60;99.80;;;;;;5009676;28;20636;-80
2020/12/02 11:42:01;;;;;;;42.50;15.90;;;3.60;99.20;;;;;;5013230;28;20861;-79
2020/12/02 11:44:37;;;;;;;44.47;15.45;;;3.40;99.50;;;;;;5005525;28;20046;-79
2020/12/02 11:47:15;;;;;;;44.22;16.75;;;3.40;99.30;;;;;;5001335;28;20592;-79
2020/12/02 11:49:51;;;;;;;38.85;15.52;;;3.30;99.00;;;;;;5003440;28;21022;-79
2020/12/02 11:52:32;;;;;;;38.25;15.13;;;3.20;99.90;;;;;;5016980;28;20124;-81
2020/12/02 11:54:58;;;;;;;39.97;15.95;;;3.20;99.90;;;;;;5021579;28;20466;-79
2020/12/02 11:57:24;;;;;;;40.65;17.30;;;3.20;99.90;;;;;;5002604;28;20088;-79
2020/12/02 11:59:50;;;;;;;42.45;16.80;;;3.20;99.90;;;;;;5005802;28;20042;-79
2020/12/02 12:03:04;;;;;;;53.85;17.25;;;3.10;99.90;;;;;;5013877;28;20068;-81
2020/12/02 12:05:58;;;;;;;40.45;15.73;;;3.20;99.90;;;;;;5012670;28;20470;-80
2020/12/02 12:08:42;;;;;;;35.38;14.07;;;3.20;99.50;;;;;;5009085;28;20101;-81
2020/12/02 12:11:47;;;;;;;46.25;16.13;;;3.20;99.60;;;;;;5009096;28;20154;-81
2020/12/02 12:14:39;;;;;;;48.10;16.08;;;3.20;99.70;;;;;;4995188;28;20065;-78
2020/12/02 12:17:28;;;;;;;40.90;15.88;;;3.10;98.10;;;;;;5006023;28;20817;-80
2020/12/02 12:20:32;;;;;;;60.95;19.85;;;3.10;99.00;;;;;;5030283;28;20049;-80
2020/12/02 12:23:05;;;;;;;42.47;16.27;;;3.10;99.40;;;;;;5016437;28;20084;-80
2020/12/02 12:25:34;;;;;;;51.83;16.70;;;3.10;98.80;;;;;;5033090;28;20624;-81
2020/12/02 12:28:02;;;;;;;48.90;15.80;;;3.20;98.90;;;;;;5018012;28;20111;-80
2020/12/02 12:30:28;;;;;;;45.65;16.13;;;3.20;98.80;;;;;;5017399;28;20313;-80
2020/12/02 12:33:04;;;;;;;40.78;15.25;;;3.10;99.20;;;;;;5037162;28;20305;-80
2020/12/02 12:35:35;;;;;;;44.05;16.48;;;3.00;98.40;;;;;;5007560;28;20093;-80
2020/12/02 12:38:27;;;;;;;49.05;17.63;;;3.00;98.50;;;;;;5019716;28;20038;-80
2020/12/02 12:41:12;;;;;;;44.47;16.50;;;3.00;98.80;;;;;;5019639;28;20033;-80
2020/12/02 12:43:59;;;;;;;;;;;2.90;98.70;;;;;;5009714;28;20041;-78
2020/12/02 12:46:44;;;;;;;41.03;14.60;;;2.90;98.80;;;;;;5005172;28;19913;-80
2020/12/02 12:49:13;;;;;;;45.35;15.93;;;2.80;98.60;;;;;;5015436;28;20041;-80
2020/12/02 12:51:39;;;;;;;54.10;16.20;;;2.90;98.80;;;;;;5018087;28;21006;-80
2020/12/02 12:54:14;;;;;;;47.80;15.95;;;3.00;99.80;;;;;;5032777;28;20113;-80
2020/12/02 12:56:41;;;;;;;50.22;17.33;;;3.00;99.40;;;;;;5008759;28;20037;-80
2020/12/02 12:59:11;;;;;;;51.40;16.65;;;3.00;99.00;;;;;;5013208;28;20105;-79
2020/12/02 13:01:38;;;;;;;48.28;15.93;;;2.90;98.90;;;;;;5010318;28;20038;-79
2020/12/02 13:04:07;;;;;;;54.97;17.95;;;2.90;99.30;;;;;;5014941;28;20034;-81
2020/12/02 13:07:00;;;;;;;45.15;16.30;;;3.00;99.10;;;;;;5023589;28;20041;-80
2020/12/02 13:09:53;;;;;;;47.53;17.23;;;2.90;99.40;;;;;;5007922;28;20133;-79